Time;durP1;ratioP1;P1;durP2;ratioP2;P2;SDS_P1;SDS_P2;PMS_P1;PMS_P2;Temp;Humidity;BMP_temperature;BMP_pressure;BME280_temperature;BME280_humidity;BME280_pressure;Samples;Min_cycle;Max_cycle;Signal;HPM_P1;HPM_P2
2023/08/12 00:00:17;;;;;;;14.37;10.40;;;;;;;-145.14;100.00;70583.66;5009729;28;20450;-71
2023/08/12 00:02:44;;;;;;;13.60;9.80;;;;;;;-145.14;100.00;70583.66;5010780;28;20213;-71
2023/08/12 00:05:13;;;;;;;11.17;9.53;;;;;;;-145.14;100.00;70583.66;5009647;28;20501;-70
2023/08/12 00:07:42;;;;;;;14.23;9.60;;;;;;;-145.14;100.00;70583.66;5007237;28;21105;-71
2023/08/12 00:10:10;;;;;;;14.97;9.53;;;;;;;-145.14;100.00;70583.66;5008925;28;20420;-71
2023/08/12 00:12:37;;;;;;;12.50;8.73;;;;;;;-145.14;100.00;70583.66;5010131;28;20493;-69
2023/08/12 00:15:06;;;;;;;14.50;9.50;;;;;;;-145.14;100.00;70583.66;5010580;28;20518;-71
2023/08/12 00:17:32;;;;;;;15.03;10.10;;;;;;;-145.14;100.00;70583.66;5012097;28;20459;-71
2023/08/12 00:19:57;;;;;;;11.60;10.03;;;;;;;-145.14;100.00;70583.66;5009277;28;20465;-70
2023/08/12 00:22:23;;;;;;;14.37;11.87;;;;;;;-145.14;100.00;70583.66;5009964;28;20645;-70
2023/08/12 00:24:49;;;;;;;14.67;10.10;;;;;;;-145.14;100.00;70583.66;5009371;28;20560;-70
2023/08/12 00:27:14;;;;;;;13.17;11.13;;;;;;;-145.14;100.00;70583.66;5009695;28;20278;-70
2023/08/12 00:29:40;;;;;;;16.40;11.43;;;;;;;-145.14;100.00;70583.66;5007167;28;20653;-70
2023/08/12 00:32:05;;;;;;;13.23;10.80;;;;;;;-145.14;100.00;70583.66;5009727;28;20192;-71
2023/08/12 00:34:31;;;;;;;14.23;11.33;;;;;;;-145.14;100.00;70583.66;5001797;28;20185;-70
2023/08/12 00:36:56;;;;;;;13.23;11.83;;;;;;;-145.14;100.00;70583.66;5008842;28;20201;-70
2023/08/12 00:39:22;;;;;;;14.80;12.20;;;;;;;-145.14;100.00;70583.66;5007612;28;20178;-70
2023/08/12 00:41:48;;;;;;;16.13;11.47;;;;;;;-145.14;100.00;70583.66;5010593;28;20278;-70
2023/08/12 00:44:13;;;;;;;15.27;11.50;;;;;;;-145.14;100.00;70583.66;5009767;28;20463;-70
2023/08/12 00:46:40;;;;;;;14.10;11.93;;;;;;;-145.14;100.00;70583.66;5008855;28;20213;-71
2023/08/12 00:49:06;;;;;;;13.90;12.17;;;;;;;-145.14;100.00;70583.66;5020808;28;20188;-71
2023/08/12 00:51:32;;;;;;;15.87;11.87;;;;;;;-145.14;100.00;70583.66;5009700;28;20477;-71
2023/08/12 00:54:04;;;;;;;15.03;12.70;;;;;;;-145.14;100.00;70583.66;5011442;28;20234;-70
2023/08/12 00:56:31;;;;;;;17.20;13.13;;;;;;;-145.14;100.00;70583.66;5010675;28;20208;-70
2023/08/12 00:58:59;;;;;;;17.53;12.57;;;;;;;-145.14;100.00;70583.66;5010809;28;20444;-71
2023/08/12 01:01:25;;;;;;;18.70;13.73;;;;;;;-145.14;100.00;70583.66;5008570;28;20436;-71
2023/08/12 01:03:51;;;;;;;18.27;13.37;;;;;;;-145.14;100.00;70583.66;5008941;28;20514;-71
2023/08/12 01:06:17;;;;;;;15.07;12.07;;;;;;;-145.14;100.00;70583.66;5011699;28;20342;-71
2023/08/12 01:08:42;;;;;;;14.43;11.57;;;;;;;-145.14;100.00;70583.66;5007481;28;20550;-71
2023/08/12 01:11:34;;;;;;;15.03;11.80;;;;;;;-145.14;100.00;70583.66;5005003;28;20278;-70
2023/08/12 01:14:08;;;;;;;12.27;10.00;;;;;;;-145.14;100.00;70583.66;5008272;28;20247;-71
2023/08/12 01:16:39;;;;;;;12.57;10.13;;;;;;;-145.14;100.00;70583.66;5008197;28;23579;-70
2023/08/12 01:19:09;;;;;;;12.70;10.10;;;;;;;-145.14;100.00;70583.66;5007143;28;20447;-70
2023/08/12 01:21:40;;;;;;;15.20;11.63;;;;;;;-145.14;100.00;70583.66;5011174;28;20519;-70
2023/08/12 01:24:06;;;;;;;14.40;10.53;;;;;;;-145.14;100.00;70583.66;5008665;28;20527;-70
2023/08/12 01:26:31;;;;;;;17.23;11.33;;;;;;;-145.14;100.00;70583.66;5018351;28;20555;-70
2023/08/12 01:28:57;;;;;;;15.97;13.20;;;;;;;-145.14;100.00;70583.66;5004110;28;20661;-70
2023/08/12 01:31:55;;;;;;;13.53;11.50;;;;;;;-145.14;100.00;70583.66;5013261;28;20214;-70
2023/08/12 01:34:33;;;;;;;18.33;12.50;;;;;;;-145.14;100.00;70583.66;4992626;28;20290;-70
2023/08/12 01:36:58;;;;;;;17.30;13.53;;;;;;;-145.14;100.00;70583.66;5008049;28;20506;-70
2023/08/12 01:39:26;;;;;;;17.33;13.37;;;;;;;-145.14;100.00;70583.66;5007441;28;20468;-71
2023/08/12 01:41:52;;;;;;;15.37;11.70;;;;;;;-145.14;100.00;70583.66;5007982;28;21182;-71
2023/08/12 01:44:18;;;;;;;17.87;13.07;;;;;;;-145.14;100.00;70583.66;5008682;28;20455;-71
2023/08/12 01:46:44;;;;;;;18.53;12.43;;;;;;;-145.14;100.00;70583.66;5006373;28;20492;-70
2023/08/12 01:49:10;;;;;;;13.23;11.37;;;;;;;-145.14;100.00;70583.66;5007467;28;20534;-71
2023/08/12 01:51:35;;;;;;;16.90;11.13;;;;;;;-145.14;100.00;70583.66;5007786;28;20800;-71
2023/08/12 01:54:01;;;;;;;13.43;10.23;;;;;;;-145.14;100.00;70583.66;5007707;28;20192;-71
2023/08/12 01:56:26;;;;;;;13.60;10.27;;;;;;;-145.14;100.00;70583.66;5012123;28;20579;-70
2023/08/12 01:58:52;;;;;;;13.37;9.27;;;;;;;-145.14;100.00;70583.66;5011606;28;20680;-70
2023/08/12 02:01:17;;;;;;;12.00;8.80;;;;;;;-145.14;100.00;70583.66;5010111;28;20272;-70
2023/08/12 02:03:42;;;;;;;10.70;8.70;;;;;;;-145.14;100.00;70583.66;5011018;28;20235;-70
2023/08/12 02:06:08;;;;;;;13.63;9.20;;;;;;;-145.14;100.00;70583.66;5022180;28;21646;-70
2023/08/12 02:08:33;;;;;;;9.70;8.13;;;;;;;-145.14;100.00;70583.66;5013053;28;20188;-71
2023/08/12 02:10:59;;;;;;;9.70;8.00;;;;;;;-145.14;100.00;70583.66;5011644;28;20185;-70
2023/08/12 02:13:24;;;;;;;10.53;7.40;;;;;;;-145.14;100.00;70583.66;5012283;28;20183;-70
2023/08/12 02:15:49;;;;;;;10.10;7.17;;;;;;;-145.14;100.00;70583.66;5012056;28;20216;-70
2023/08/12 02:18:15;;;;;;;9.63;7.23;;;;;;;-145.14;100.00;70583.66;5013487;28;20185;-71
2023/08/12 02:20:41;;;;;;;7.80;6.80;;;;;;;-145.14;100.00;70583.66;5013005;28;20192;-70
2023/08/12 02:23:06;;;;;;;8.23;6.80;;;;;;;-145.14;100.00;70583.66;5011348;28;20260;-71
2023/08/12 02:25:32;;;;;;;11.80;7.80;;;;;;;-145.14;100.00;70583.66;5011040;28;20566;-71
2023/08/12 02:27:57;;;;;;;10.00;6.30;;;;;;;-145.14;100.00;70583.66;5012504;28;20637;-70
2023/08/12 02:30:23;;;;;;;8.20;5.70;;;;;;;-145.14;100.00;70583.66;5012893;28;20263;-71
2023/08/12 02:32:49;;;;;;;7.57;6.30;;;;;;;-145.14;100.00;70583.66;5011125;28;20192;-71
2023/08/12 02:35:15;;;;;;;8.07;5.73;;;;;;;-145.14;100.00;70583.66;5012184;28;20204;-71
2023/08/12 02:37:40;;;;;;;6.47;5.77;;;;;;;-145.14;100.00;70583.66;5011590;28;20542;-71
2023/08/12 02:40:06;;;;;;;8.60;6.70;;;;;;;-145.14;100.00;70583.66;5010766;28;20530;-70
2023/08/12 02:42:32;;;;;;;8.13;5.83;;;;;;;-145.14;100.00;70583.66;5012206;28;20197;-71
2023/08/12 02:44:59;;;;;;;7.90;5.50;;;;;;;-145.14;100.00;70583.66;5010606;28;20448;-71
2023/08/12 02:47:24;;;;;;;8.13;7.27;;;;;;;-145.14;100.00;70583.66;5008495;28;20215;-71
2023/08/12 02:49:50;;;;;;;8.70;6.30;;;;;;;-145.14;100.00;70583.66;5011971;28;20443;-71
2023/08/12 02:52:15;;;;;;;7.23;5.03;;;;;;;-145.14;100.00;70583.66;5007620;28;20640;-71
2023/08/12 02:54:41;;;;;;;8.00;5.20;;;;;;;-145.14;100.00;70583.66;5013426;28;20208;-70
2023/08/12 02:57:06;;;;;;;9.30;5.47;;;;;;;-145.14;100.00;70583.66;5012486;28;20266;-70
2023/08/12 02:59:31;;;;;;;7.43;4.80;;;;;;;-145.14;100.00;70583.66;5012248;28;20188;-70
2023/08/12 03:01:57;;;;;;;5.60;5.00;;;;;;;-145.14;100.00;70583.66;5013163;28;20196;-70
2023/08/12 03:04:22;;;;;;;6.40;4.90;;;;;;;-145.14;100.00;70583.66;5009550;28;20191;-70
2023/08/12 03:06:48;;;;;;;9.83;6.03;;;;;;;-145.14;100.00;70583.66;5009666;28;20707;-70
2023/08/12 03:09:13;;;;;;;7.10;5.43;;;;;;;-145.14;100.00;70583.66;5008575;28;21236;-70
2023/08/12 03:11:39;;;;;;;6.67;4.80;;;;;;;-145.14;100.00;70583.66;5010081;28;20703;-70
2023/08/12 03:14:04;;;;;;;5.60;4.70;;;;;;;-145.14;100.00;70583.66;5010695;28;20212;-70
2023/08/12 03:16:30;;;;;;;5.93;5.10;;;;;;;-145.14;100.00;70583.66;5010793;28;20236;-70
2023/08/12 03:18:56;;;;;;;6.70;5.00;;;;;;;-145.14;100.00;70583.66;5008712;28;20189;-70
2023/08/12 03:21:21;;;;;;;7.53;5.17;;;;;;;-145.14;100.00;70583.66;5009882;28;20188;-70
2023/08/12 03:23:47;;;;;;;7.57;5.23;;;;;;;-145.14;100.00;70583.66;5010121;28;20243;-70
2023/08/12 03:26:14;;;;;;;7.30;5.20;;;;;;;-145.14;100.00;70583.66;5011036;28;20216;-70
2023/08/12 03:28:39;;;;;;;7.87;5.13;;;;;;;-145.14;100.00;70583.66;5010196;28;20181;-70
2023/08/12 03:31:05;;;;;;;7.00;4.77;;;;;;;-145.14;100.00;70583.66;5011063;28;20455;-70
2023/08/12 03:33:32;;;;;;;6.47;4.70;;;;;;;-145.14;100.00;70583.66;5010022;28;20292;-71
2023/08/12 03:35:57;;;;;;;5.87;4.90;;;;;;;-145.14;100.00;70583.66;5009965;28;20223;-70
2023/08/12 03:38:23;;;;;;;6.00;5.07;;;;;;;-145.14;100.00;70583.66;5009403;28;20471;-70
2023/08/12 03:40:50;;;;;;;7.83;5.07;;;;;;;-145.14;100.00;70583.66;5011247;28;20570;-70
2023/08/12 03:43:15;;;;;;;6.97;4.73;;;;;;;-145.14;100.00;70583.66;5010515;28;20189;-70
2023/08/12 03:45:45;;;;;;;6.10;4.67;;;;;;;-145.14;100.00;70583.66;5010802;28;20529;-70
2023/08/12 03:48:11;;;;;;;6.20;3.80;;;;;;;-145.14;100.00;70583.66;5010476;28;20212;-70
2023/08/12 03:50:37;;;;;;;6.43;4.70;;;;;;;-145.14;100.00;70583.66;5009388;28;20535;-71
2023/08/12 03:53:03;;;;;;;5.77;4.97;;;;;;;-145.14;100.00;70583.66;5023009;28;21021;-70
2023/08/12 03:55:32;;;;;;;5.73;4.60;;;;;;;-145.14;100.00;70583.66;5007908;28;20448;-70
2023/08/12 03:57:58;;;;;;;5.90;4.70;;;;;;;-145.14;100.00;70583.66;5009153;28;20312;-71
2023/08/12 04:00:24;;;;;;;6.10;4.50;;;;;;;-145.14;100.00;70583.66;5008177;28;20543;-70
2023/08/12 04:02:49;;;;;;;6.53;4.70;;;;;;;-145.14;100.00;70583.66;5010292;28;20831;-70
2023/08/12 04:05:14;;;;;;;6.17;5.03;;;;;;;-145.14;100.00;70583.66;5009699;28;20208;-70
2023/08/12 04:07:40;;;;;;;6.40;5.30;;;;;;;-145.14;100.00;70583.66;5008340;28;20216;-71
2023/08/12 04:10:06;;;;;;;7.60;4.83;;;;;;;-145.14;100.00;70583.66;5010868;28;20181;-70
2023/08/12 04:12:32;;;;;;;8.93;6.17;;;;;;;-145.14;100.00;70583.66;5009030;28;20219;-70
2023/08/12 04:14:57;;;;;;;7.40;5.33;;;;;;;-145.14;100.00;70583.66;5009350;28;21111;-70
2023/08/12 04:17:22;;;;;;;6.80;6.10;;;;;;;-145.14;100.00;70583.66;5008298;28;20201;-70
2023/08/12 04:19:49;;;;;;;6.43;5.67;;;;;;;-145.14;100.00;70583.66;5008177;28;20220;-70
2023/08/12 04:22:14;;;;;;;6.63;5.83;;;;;;;-145.14;100.00;70583.66;5009353;28;20181;-70
2023/08/12 04:24:40;;;;;;;6.80;5.63;;;;;;;-145.14;100.00;70583.66;5010691;28;20514;-70
2023/08/12 04:27:05;;;;;;;7.80;5.53;;;;;;;-145.14;100.00;70583.66;5009969;28;20219;-70
2023/08/12 04:29:31;;;;;;;6.53;5.73;;;;;;;-145.14;100.00;70583.66;5009435;28;20217;-70
2023/08/12 04:31:56;;;;;;;5.73;5.10;;;;;;;-145.14;100.00;70583.66;5010465;28;20264;-70
2023/08/12 04:34:21;;;;;;;8.17;4.97;;;;;;;-145.14;100.00;70583.66;5010381;28;20190;-71
2023/08/12 04:36:47;;;;;;;5.73;5.13;;;;;;;-145.14;100.00;70583.66;5009229;28;20195;-70
2023/08/12 04:39:12;;;;;;;7.37;5.30;;;;;;;-145.14;100.00;70583.66;5009439;28;20618;-71
2023/08/12 04:41:41;;;;;;;8.20;5.60;;;;;;;-145.14;100.00;70583.66;5010117;28;20203;-70
2023/08/12 04:44:06;;;;;;;5.83;4.90;;;;;;;-145.14;100.00;70583.66;5009227;28;20279;-71
2023/08/12 04:46:32;;;;;;;7.07;5.40;;;;;;;-145.14;100.00;70583.66;5009206;28;20566;-71
2023/08/12 04:48:57;;;;;;;8.03;6.27;;;;;;;-145.14;100.00;70583.66;5008781;28;20192;-70
2023/08/12 04:51:23;;;;;;;6.07;4.80;;;;;;;-145.14;100.00;70583.66;5008113;28;20243;-70
2023/08/12 04:53:48;;;;;;;6.73;4.80;;;;;;;-145.14;100.00;70583.66;5009560;28;20197;-70
2023/08/12 04:56:14;;;;;;;5.93;4.80;;;;;;;-145.14;100.00;70583.66;5011026;28;20283;-70
2023/08/12 04:58:39;;;;;;;6.07;4.73;;;;;;;-145.14;100.00;70583.66;5010912;28;20259;-70
2023/08/12 05:01:04;;;;;;;7.97;4.97;;;;;;;-145.14;100.00;70583.66;5010414;28;20193;-70
2023/08/12 05:03:30;;;;;;;6.63;5.00;;;;;;;-145.14;100.00;70583.66;5009094;28;20200;-71
2023/08/12 05:05:55;;;;;;;7.97;5.53;;;;;;;-145.14;100.00;70583.66;5007913;28;20216;-70
2023/08/12 05:08:21;;;;;;;11.60;5.30;;;;;;;-145.14;100.00;70583.66;5008238;28;20189;-70
2023/08/12 05:10:49;;;;;;;5.67;4.67;;;;;;;-145.14;100.00;70583.66;5008580;28;20185;-70
2023/08/12 05:13:16;;;;;;;6.80;4.77;;;;;;;-145.14;100.00;70583.66;5007210;28;20192;-70
2023/08/12 05:15:41;;;;;;;10.07;5.30;;;;;;;-145.14;100.00;70583.66;5007517;28;20809;-70
2023/08/12 05:18:07;;;;;;;6.53;4.83;;;;;;;-145.14;100.00;70583.66;5007732;28;20468;-70
2023/08/12 05:20:33;;;;;;;5.80;5.20;;;;;;;-145.14;100.00;70583.66;5009682;28;20188;-70
2023/08/12 05:22:58;;;;;;;6.00;4.77;;;;;;;-145.14;100.00;70583.66;5008087;28;20200;-70
2023/08/12 05:25:23;;;;;;;6.80;5.47;;;;;;;-145.14;100.00;70583.66;5009431;28;20742;-71
2023/08/12 05:27:49;;;;;;;6.30;5.50;;;;;;;-145.14;100.00;70583.66;5011461;28;20228;-71
2023/08/12 05:30:15;;;;;;;6.07;4.87;;;;;;;-145.14;100.00;70583.66;5012623;28;20566;-70
2023/08/12 05:32:40;;;;;;;5.97;4.90;;;;;;;-145.14;100.00;70583.66;5014225;28;20207;-70
2023/08/12 05:35:06;;;;;;;5.27;4.43;;;;;;;-145.14;100.00;70583.66;5011997;28;20189;-71
2023/08/12 05:37:31;;;;;;;7.57;5.10;;;;;;;-145.14;100.00;70583.66;5013031;28;20212;-71
2023/08/12 05:39:57;;;;;;;6.77;4.93;;;;;;;-145.14;100.00;70583.66;5011773;28;20664;-71
2023/08/12 05:42:22;;;;;;;6.10;4.60;;;;;;;-145.14;100.00;70583.66;5014293;28;20185;-71
2023/08/12 05:44:48;;;;;;;6.80;5.60;;;;;;;-145.14;100.00;70583.66;5014003;28;20177;-71
2023/08/12 05:47:13;;;;;;;6.67;5.40;;;;;;;-145.14;100.00;70583.66;5015942;28;20668;-70
2023/08/12 05:49:39;;;;;;;6.10;4.83;;;;;;;-145.14;100.00;70583.66;5013743;28;20602;-70
2023/08/12 05:52:04;;;;;;;7.07;5.53;;;;;;;-145.14;100.00;70583.66;5011174;28;20640;-71
2023/08/12 05:54:30;;;;;;;8.17;5.00;;;;;;;-145.14;100.00;70583.66;5011689;28;21049;-71
2023/08/12 05:56:55;;;;;;;12.60;6.27;;;;;;;-145.14;100.00;70583.66;5014737;28;20679;-70
2023/08/12 05:59:20;;;;;;;8.90;6.17;;;;;;;-145.14;100.00;70583.66;5012109;28;20188;-71
2023/08/12 06:01:46;;;;;;;9.60;5.07;;;;;;;-145.14;100.00;70583.66;5012511;28;20189;-70
2023/08/12 06:04:11;;;;;;;7.33;5.50;;;;;;;-145.14;100.00;70583.66;5015277;28;20196;-70
2023/08/12 06:06:37;;;;;;;5.50;5.00;;;;;;;-145.14;100.00;70583.66;5009176;28;20224;-70
2023/08/12 06:09:03;;;;;;;8.80;6.40;;;;;;;-145.14;100.00;70583.66;5014129;28;20575;-70
2023/08/12 06:11:28;;;;;;;11.90;6.23;;;;;;;-145.14;100.00;70583.66;5015213;28;20185;-70
2023/08/12 06:13:54;;;;;;;6.97;5.77;;;;;;;-145.14;100.00;70583.66;5012668;28;20435;-70
2023/08/12 06:16:19;;;;;;;11.10;7.07;;;;;;;-145.14;100.00;70583.66;5012453;28;20696;-70
2023/08/12 06:18:45;;;;;;;6.97;6.00;;;;;;;-145.14;100.00;70583.66;5012296;28;20185;-71
2023/08/12 06:21:10;;;;;;;8.87;5.50;;;;;;;-145.14;100.00;70583.66;5019752;28;20195;-71
2023/08/12 06:23:35;;;;;;;8.20;6.07;;;;;;;-145.14;100.00;70583.66;5010776;28;20181;-70
2023/08/12 06:26:01;;;;;;;7.80;5.97;;;;;;;-145.14;100.00;70583.66;5013257;28;20219;-70
2023/08/12 06:28:26;;;;;;;6.80;5.10;;;;;;;-145.14;100.00;70583.66;5011039;28;20550;-70
2023/08/12 06:30:52;;;;;;;8.50;5.47;;;;;;;-145.14;100.00;70583.66;5011427;28;20747;-70
2023/08/12 06:33:18;;;;;;;7.70;6.20;;;;;;;-145.14;100.00;70583.66;5010149;28;20200;-70
2023/08/12 06:35:44;;;;;;;12.00;7.17;;;;;;;-145.14;100.00;70583.66;5008915;28;20944;-70
2023/08/12 06:38:10;;;;;;;8.47;6.77;;;;;;;-145.14;100.00;70583.66;5012259;28;20217;-71
2023/08/12 06:40:35;;;;;;;9.50;6.50;;;;;;;-145.14;100.00;70583.66;5010741;28;20502;-70
2023/08/12 06:43:01;;;;;;;12.43;7.63;;;;;;;-145.14;100.00;70583.66;5012412;28;20216;-70
2023/08/12 06:45:26;;;;;;;10.70;7.03;;;;;;;-145.14;100.00;70583.66;5011063;28;20332;-71
2023/08/12 06:47:52;;;;;;;10.73;6.80;;;;;;;-145.14;100.00;70583.66;5010614;28;20589;-70
2023/08/12 06:50:17;;;;;;;7.60;6.40;;;;;;;-145.14;100.00;70583.66;5010365;28;20604;-70
2023/08/12 06:52:42;;;;;;;8.00;5.33;;;;;;;-145.14;100.00;70583.66;5011033;28;20830;-70
2023/08/12 06:55:08;;;;;;;7.10;5.80;;;;;;;-145.14;100.00;70583.66;5012056;28;20185;-71
2023/08/12 06:57:33;;;;;;;10.00;7.00;;;;;;;-145.14;100.00;70583.66;5012378;28;20611;-70
2023/08/12 06:59:59;;;;;;;9.10;7.17;;;;;;;-145.14;100.00;70583.66;5007490;28;20701;-70
2023/08/12 07:02:24;;;;;;;10.20;6.63;;;;;;;-145.14;100.00;70583.66;5008415;28;20211;-70
2023/08/12 07:04:50;;;;;;;6.70;5.33;;;;;;;-145.14;100.00;70583.66;5022140;28;20189;-70
2023/08/12 07:07:15;;;;;;;7.90;6.00;;;;;;;-145.14;100.00;70583.66;5009159;28;20209;-70
2023/08/12 07:09:41;;;;;;;8.17;5.70;;;;;;;-145.14;100.00;70583.66;5007810;28;20207;-70
2023/08/12 07:12:06;;;;;;;7.00;6.00;;;;;;;-145.14;100.00;70583.66;5009061;28;20570;-70
2023/08/12 07:14:32;;;;;;;6.73;5.67;;;;;;;-145.14;100.00;70583.66;5007039;28;20191;-70
2023/08/12 07:16:57;;;;;;;6.63;5.67;;;;;;;-145.14;100.00;70583.66;5011445;28;20217;-71
2023/08/12 07:19:23;;;;;;;11.33;7.37;;;;;;;-145.14;100.00;70583.66;5009627;28;20281;-70
2023/08/12 07:21:48;;;;;;;8.73;5.20;;;;;;;-145.14;100.00;70583.66;5011686;28;20236;-70
2023/08/12 07:24:14;;;;;;;9.70;6.33;;;;;;;-145.14;100.00;70583.66;5009900;28;20203;-70
2023/08/12 07:26:39;;;;;;;7.60;5.63;;;;;;;-145.14;100.00;70583.66;5011145;28;20216;-71
2023/08/12 07:29:04;;;;;;;8.50;6.37;;;;;;;-145.14;100.00;70583.66;5010805;28;20216;-70
2023/08/12 07:31:30;;;;;;;9.87;5.97;;;;;;;-145.14;100.00;70583.66;5010249;28;20236;-70
2023/08/12 07:33:55;;;;;;;10.77;6.90;;;;;;;-145.14;100.00;70583.66;5010477;28;20189;-70
2023/08/12 07:36:21;;;;;;;11.13;7.40;;;;;;;-145.14;100.00;70583.66;5017892;28;20671;-69
2023/08/12 07:38:46;;;;;;;11.67;7.17;;;;;;;-145.14;100.00;70583.66;5009360;28;20187;-70
2023/08/12 07:41:12;;;;;;;9.70;6.30;;;;;;;-145.14;100.00;70583.66;5011708;28;20181;-70
2023/08/12 07:43:37;;;;;;;9.97;6.73;;;;;;;-145.14;100.00;70583.66;5006787;28;20207;-70
2023/08/12 07:46:04;;;;;;;7.80;6.17;;;;;;;-145.14;100.00;70583.66;5007700;28;20201;-69
2023/08/12 07:48:29;;;;;;;7.37;6.00;;;;;;;-145.14;100.00;70583.66;5010467;28;20181;-72
2023/08/12 07:50:58;;;;;;;8.47;6.33;;;;;;;-145.14;100.00;70583.66;5009211;28;20440;-70
2023/08/12 07:53:24;;;;;;;14.17;7.70;;;;;;;-145.14;100.00;70583.66;5008630;28;20189;-70
2023/08/12 07:55:49;;;;;;;8.30;7.00;;;;;;;-145.14;100.00;70583.66;5022216;28;21135;-70
2023/08/12 07:58:15;;;;;;;12.80;8.23;;;;;;;-145.14;100.00;70583.66;5007755;28;20196;-69
2023/08/12 08:00:40;;;;;;;13.70;8.07;;;;;;;-145.14;100.00;70583.66;5007772;28;20866;-69
2023/08/12 08:03:06;;;;;;;9.50;6.53;;;;;;;-145.14;100.00;70583.66;5009166;28;20189;-71
2023/08/12 08:05:31;;;;;;;8.33;6.37;;;;;;;-145.14;100.00;70583.66;5009552;28;20196;-70
2023/08/12 08:07:57;;;;;;;9.53;6.20;;;;;;;-145.14;100.00;70583.66;5009150;28;20207;-70
2023/08/12 08:10:23;;;;;;;10.90;6.93;;;;;;;-145.14;100.00;70583.66;5009209;28;20188;-70
2023/08/12 08:12:48;;;;;;;11.03;7.23;;;;;;;-145.14;100.00;70583.66;5009142;28;20185;-70
2023/08/12 08:15:13;;;;;;;8.63;6.53;;;;;;;-145.14;100.00;70583.66;5009442;28;20650;-70
2023/08/12 08:17:39;;;;;;;12.00;8.33;;;;;;;-145.14;100.00;70583.66;5006921;28;20209;-70
2023/08/12 08:20:05;;;;;;;9.40;6.17;;;;;;;-145.14;100.00;70583.66;5007693;28;20680;-70
2023/08/12 08:22:31;;;;;;;10.60;8.00;;;;;;;-145.14;100.00;70583.66;5010110;28;20193;-70
2023/08/12 08:24:56;;;;;;;10.20;7.80;;;;;;;-145.14;100.00;70583.66;5010349;28;20450;-70
2023/08/12 08:27:22;;;;;;;14.93;8.80;;;;;;;-145.14;100.00;70583.66;5005881;28;20479;-70
2023/08/12 08:29:47;;;;;;;11.00;9.27;;;;;;;-145.14;100.00;70583.66;5010108;28;20193;-70
2023/08/12 08:32:13;;;;;;;17.67;10.20;;;;;;;-145.14;100.00;70583.66;5010635;28;20684;-71
2023/08/12 08:34:38;;;;;;;10.50;8.73;;;;;;;-145.14;100.00;70583.66;5009131;28;20188;-71
2023/08/12 08:37:04;;;;;;;14.70;9.60;;;;;;;-145.14;100.00;70583.66;5007311;28;20621;-73
2023/08/12 08:39:29;;;;;;;12.93;9.70;;;;;;;-145.14;100.00;70583.66;5008266;28;20197;-72
2023/08/12 08:41:56;;;;;;;14.80;11.50;;;;;;;-145.14;100.00;70583.66;5011431;28;20192;-71
2023/08/12 08:44:25;;;;;;;12.50;10.20;;;;;;;-145.14;100.00;70583.66;5012853;28;20185;-72
2023/08/12 08:46:55;;;;;;;14.63;10.90;;;;;;;-145.14;100.00;70583.66;5009379;28;20464;-72
2023/08/12 08:49:22;;;;;;;12.73;10.30;;;;;;;-145.14;100.00;70583.66;5008972;28;21047;-71
2023/08/12 08:51:50;;;;;;;14.47;11.77;;;;;;;-145.14;100.00;70583.66;5024372;28;20439;-72
2023/08/12 08:54:15;;;;;;;13.57;10.70;;;;;;;-145.14;100.00;70583.66;5010086;28;20921;-72
2023/08/12 08:56:41;;;;;;;10.50;9.10;;;;;;;-145.14;100.00;70583.66;5009749;28;20452;-72
2023/08/12 08:59:07;;;;;;;10.40;9.07;;;;;;;-145.14;100.00;70583.66;5007912;28;20888;-72
2023/08/12 09:01:36;;;;;;;16.97;11.07;;;;;;;-145.14;100.00;70583.66;5008402;28;20440;-72
2023/08/12 09:04:03;;;;;;;15.83;12.90;;;;;;;-145.14;100.00;70583.66;5014103;28;20185;-73
2023/08/12 09:06:29;;;;;;;16.00;12.43;;;;;;;-145.14;100.00;70583.66;5007795;28;20483;-72
2023/08/12 09:09:00;;;;;;;18.03;13.00;;;;;;;-145.14;100.00;70583.66;5005921;28;20474;-71
2023/08/12 09:11:25;;;;;;;15.67;13.63;;;;;;;-145.14;100.00;70583.66;5006154;28;20477;-71
2023/08/12 09:13:52;;;;;;;14.90;12.30;;;;;;;-145.14;100.00;70583.66;5013542;28;20538;-72
2023/08/12 09:16:18;;;;;;;19.23;14.40;;;;;;;-145.14;100.00;70583.66;5011000;28;20262;-73
2023/08/12 09:18:46;;;;;;;13.77;12.33;;;;;;;-145.14;100.00;70583.66;5007274;28;20446;-72
2023/08/12 09:21:12;;;;;;;13.10;11.70;;;;;;;-145.14;100.00;70583.66;5016934;28;20188;-71
2023/08/12 09:23:39;;;;;;;15.55;11.80;;;;;;;-145.14;100.00;70583.66;5005942;28;20447;-73
2023/08/12 09:26:14;;;;;;;15.00;12.10;;;;;;;-145.14;100.00;70583.66;5007513;28;20205;-70
2023/08/12 09:28:40;;;;;;;15.20;11.40;;;;;;;-145.14;100.00;70583.66;5007614;28;20459;-71
2023/08/12 09:31:07;;;;;;;17.00;13.40;;;;;;;-145.14;100.00;70583.66;5006295;28;20273;-71
2023/08/12 09:33:32;;;;;;;16.53;12.60;;;;;;;-145.14;100.00;70583.66;5006762;28;20439;-71
2023/08/12 09:35:57;;;;;;;16.40;14.43;;;;;;;-145.14;100.00;70583.66;5007551;28;20442;-71
2023/08/12 09:38:23;;;;;;;18.73;14.30;;;;;;;-145.14;100.00;70583.66;5005675;28;20288;-71
2023/08/12 09:40:52;;;;;;;17.27;13.57;;;;;;;-145.14;100.00;70583.66;5004566;28;20716;-71
2023/08/12 09:43:17;;;;;;;13.73;12.20;;;;;;;-145.14;100.00;70583.66;5010209;28;20192;-71
2023/08/12 09:45:45;;;;;;;17.47;13.70;;;;;;;-145.14;100.00;70583.66;5006840;28;20471;-71
2023/08/12 09:48:10;;;;;;;13.87;12.40;;;;;;;-145.14;100.00;70583.66;5007390;28;20209;-71
2023/08/12 09:50:36;;;;;;;12.03;10.67;;;;;;;-145.14;100.00;70583.66;5017031;28;20428;-71
2023/08/12 09:53:03;;;;;;;12.93;10.83;;;;;;;-145.14;100.00;70583.66;5007384;28;20289;-71
2023/08/12 09:55:31;;;;;;;11.30;8.43;;;;;;;-145.14;100.00;70583.66;5014888;28;20272;-71
2023/08/12 09:57:59;;;;;;;10.70;9.57;;;;;;;-145.14;100.00;70583.66;5013360;28;20451;-72
2023/08/12 10:00:25;;;;;;;15.10;12.00;;;;;;;-145.14;100.00;70583.66;5015278;28;20446;-72
2023/08/12 10:02:52;;;;;;;15.77;13.50;;;;;;;-145.14;100.00;70583.66;5010431;28;20921;-71
2023/08/12 10:05:32;;;;;;;15.75;13.50;;;;;;;-145.14;100.00;70583.66;5012623;28;20198;-72
2023/08/12 10:07:58;;;;;;;13.43;11.83;;;;;;;-145.14;100.00;70583.66;5006307;28;20462;-71
2023/08/12 10:10:25;;;;;;;16.37;12.97;;;;;;;-145.14;100.00;70583.66;5018021;28;20436;-71
2023/08/12 10:12:51;;;;;;;13.10;11.67;;;;;;;-145.14;100.00;70583.66;5016355;28;20432;-71
2023/08/12 10:15:17;;;;;;;13.97;12.50;;;;;;;-145.14;100.00;70583.66;5010268;28;20535;-71
2023/08/12 10:17:43;;;;;;;19.40;15.65;;;;;;;-145.14;100.00;70583.66;5009887;28;20538;-71
2023/08/12 10:20:13;;;;;;;14.30;12.80;;;;;;;-145.14;100.00;70583.66;5010885;28;20205;-73
2023/08/12 10:22:39;;;;;;;15.90;14.20;;;;;;;-145.14;100.00;70583.66;5008987;28;20447;-73
2023/08/12 10:25:08;;;;;;;13.60;12.30;;;;;;;-145.14;100.00;70583.66;5011109;28;20443;-73
2023/08/12 10:27:34;;;;;;;17.60;13.25;;;;;;;-145.14;100.00;70583.66;4970252;28;1163558;-72
2023/08/12 10:30:03;;;;;;;15.60;12.70;;;;;;;-145.14;100.00;70583.66;5014643;28;20594;-72
2023/08/12 10:32:30;;;;;;;15.00;13.40;;;;;;;-145.14;100.00;70583.66;5010607;28;20431;-73
2023/08/12 10:34:56;;;;;;;16.10;14.15;;;;;;;-145.14;100.00;70583.66;5012362;28;20485;-73
2023/08/12 10:37:24;;;;;;;17.20;15.10;;;;;;;-145.14;100.00;70583.66;5016174;28;20463;-73
2023/08/12 10:39:51;;;;;;;15.87;13.87;;;;;;;-145.14;100.00;70583.66;5019686;28;20932;-73
2023/08/12 10:42:44;;;;;;;14.53;13.03;;;;;;;-145.14;100.00;70583.66;5011295;28;20469;-72
2023/08/12 10:45:14;;;;;;;17.47;13.67;;;;;;;-145.14;100.00;70583.66;5011837;28;20431;-73
2023/08/12 10:48:29;;;;;;;15.40;13.60;;;;;;;-145.14;100.00;70583.66;5013769;28;20462;-73
2023/08/12 10:50:58;;;;;;;13.43;12.07;;;;;;;-145.14;100.00;70583.66;5019324;28;20469;-73
2023/08/12 10:53:33;;;;;;;11.87;10.67;;;;;;;-145.14;100.00;70583.66;5011306;28;20436;-73
2023/08/12 10:56:00;;;;;;;15.83;11.50;;;;;;;-145.14;100.00;70583.66;5018545;28;20442;-73
2023/08/12 10:58:27;;;;;;;12.25;10.35;;;;;;;-145.14;100.00;70583.66;5010491;28;20438;-72